sensor_id;sensor_type;location;lat;lon;timestamp;P1;durP1;ratioP1;P2;durP2;ratioP2
67819;SDS011;54618;52.018;5.576;2023-08-21T00:01:29;5.70;;;2.78;;
67819;SDS011;54618;52.018;5.576;2023-08-21T00:03:55;8.02;;;3.28;;
67819;SDS011;54618;52.018;5.576;2023-08-21T00:06:20;9.43;;;2.90;;
67819;SDS011;54618;52.018;5.576;2023-08-21T00:08:46;5.97;;;2.78;;
67819;SDS011;54618;52.018;5.576;2023-08-21T00:11:12;8.35;;;2.88;;
67819;SDS011;54618;52.018;5.576;2023-08-21T00:13:37;8.48;;;2.90;;
67819;SDS011;54618;52.018;5.576;2023-08-21T00:16:03;6.78;;;2.58;;
67819;SDS011;54618;52.018;5.576;2023-08-21T00:18:28;10.38;;;2.95;;
67819;SDS011;54618;52.018;5.576;2023-08-21T00:20:54;12.45;;;2.90;;
67819;SDS011;54618;52.018;5.576;2023-08-21T00:23:20;15.88;;;3.65;;
67819;SDS011;54618;52.018;5.576;2023-08-21T00:25:46;8.90;;;2.75;;
67819;SDS011;54618;52.018;5.576;2023-08-21T00:28:12;9.30;;;3.13;;
67819;SDS011;54618;52.018;5.576;2023-08-21T00:30:38;7.10;;;2.80;;
67819;SDS011;54618;52.018;5.576;2023-08-21T00:33:03;9.88;;;3.10;;
67819;SDS011;54618;52.018;5.576;2023-08-21T00:35:29;11.07;;;2.78;;
67819;SDS011;54618;52.018;5.576;2023-08-21T00:37:55;11.07;;;3.00;;
67819;SDS011;54618;52.018;5.576;2023-08-21T00:40:20;7.20;;;2.95;;
67819;SDS011;54618;52.018;5.576;2023-08-21T00:42:46;8.35;;;2.75;;
67819;SDS011;54618;52.018;5.576;2023-08-21T00:45:11;7.55;;;2.80;;
67819;SDS011;54618;52.018;5.576;2023-08-21T00:47:37;8.70;;;2.90;;
67819;SDS011;54618;52.018;5.576;2023-08-21T00:50:03;8.07;;;2.92;;
67819;SDS011;54618;52.018;5.576;2023-08-21T00:52:33;6.32;;;2.75;;
67819;SDS011;54618;52.018;5.576;2023-08-21T00:55:00;8.15;;;3.00;;
67819;SDS011;54618;52.018;5.576;2023-08-21T00:57:25;7.88;;;3.08;;
67819;SDS011;54618;52.018;5.576;2023-08-21T00:59:51;11.90;;;3.40;;
67819;SDS011;54618;52.018;5.576;2023-08-21T01:02:17;8.45;;;3.40;;
67819;SDS011;54618;52.018;5.576;2023-08-21T01:04:44;11.75;;;4.10;;
67819;SDS011;54618;52.018;5.576;2023-08-21T01:07:09;9.88;;;3.42;;
67819;SDS011;54618;52.018;5.576;2023-08-21T01:15:00;9.93;;;3.55;;
67819;SDS011;54618;52.018;5.576;2023-08-21T01:17:30;8.20;;;3.35;;
67819;SDS011;54618;52.018;5.576;2023-08-21T01:20:02;12.85;;;3.38;;
67819;SDS011;54618;52.018;5.576;2023-08-21T01:22:35;11.80;;;3.67;;
67819;SDS011;54618;52.018;5.576;2023-08-21T01:25:03;7.93;;;3.50;;
67819;SDS011;54618;52.018;5.576;2023-08-21T01:27:30;8.77;;;3.00;;
67819;SDS011;54618;52.018;5.576;2023-08-21T01:29:56;9.32;;;3.33;;
67819;SDS011;54618;52.018;5.576;2023-08-21T01:34:56;7.00;;;3.20;;
67819;SDS011;54618;52.018;5.576;2023-08-21T01:37:30;10.68;;;3.72;;
67819;SDS011;54618;52.018;5.576;2023-08-21T01:39:59;8.73;;;3.17;;
67819;SDS011;54618;52.018;5.576;2023-08-21T01:42:24;11.10;;;3.33;;
67819;SDS011;54618;52.018;5.576;2023-08-21T01:44:50;8.85;;;3.67;;
67819;SDS011;54618;52.018;5.576;2023-08-21T01:47:15;9.35;;;3.15;;
67819;SDS011;54618;52.018;5.576;2023-08-21T01:49:41;10.82;;;3.60;;
67819;SDS011;54618;52.018;5.576;2023-08-21T01:52:07;7.15;;;3.15;;
67819;SDS011;54618;52.018;5.576;2023-08-21T01:54:32;12.90;;;3.38;;
67819;SDS011;54618;52.018;5.576;2023-08-21T01:57:01;7.28;;;2.83;;
67819;SDS011;54618;52.018;5.576;2023-08-21T01:59:27;11.85;;;3.25;;
67819;SDS011;54618;52.018;5.576;2023-08-21T02:01:55;5.90;;;2.60;;
67819;SDS011;54618;52.018;5.576;2023-08-21T02:04:20;8.57;;;3.05;;
67819;SDS011;54618;52.018;5.576;2023-08-21T02:06:46;8.43;;;3.20;;
67819;SDS011;54618;52.018;5.576;2023-08-21T02:09:12;7.65;;;2.97;;
67819;SDS011;54618;52.018;5.576;2023-08-21T02:11:37;10.90;;;3.33;;
67819;SDS011;54618;52.018;5.576;2023-08-21T02:14:03;12.82;;;3.30;;
67819;SDS011;54618;52.018;5.576;2023-08-21T02:16:29;8.73;;;3.30;;
67819;SDS011;54618;52.018;5.576;2023-08-21T02:18:54;6.65;;;2.90;;
67819;SDS011;54618;52.018;5.576;2023-08-21T02:21:20;9.13;;;3.30;;
67819;SDS011;54618;52.018;5.576;2023-08-21T02:23:46;6.45;;;3.08;;
67819;SDS011;54618;52.018;5.576;2023-08-21T02:26:11;7.47;;;2.90;;
67819;SDS011;54618;52.018;5.576;2023-08-21T02:28:37;10.13;;;3.08;;
67819;SDS011;54618;52.018;5.576;2023-08-21T02:31:02;7.47;;;2.95;;
67819;SDS011;54618;52.018;5.576;2023-08-21T02:33:31;9.45;;;2.95;;
67819;SDS011;54618;52.018;5.576;2023-08-21T02:35:57;6.45;;;2.83;;
67819;SDS011;54618;52.018;5.576;2023-08-21T02:38:22;8.70;;;3.05;;
67819;SDS011;54618;52.018;5.576;2023-08-21T02:40:48;5.72;;;2.58;;
67819;SDS011;54618;52.018;5.576;2023-08-21T02:43:14;8.13;;;2.70;;
67819;SDS011;54618;52.018;5.576;2023-08-21T02:45:41;8.25;;;2.65;;
67819;SDS011;54618;52.018;5.576;2023-08-21T02:48:06;8.45;;;2.70;;
67819;SDS011;54618;52.018;5.576;2023-08-21T02:50:33;5.07;;;2.17;;
67819;SDS011;54618;52.018;5.576;2023-08-21T02:53:02;6.70;;;2.90;;
67819;SDS011;54618;52.018;5.576;2023-08-21T02:55:31;7.70;;;2.72;;
67819;SDS011;54618;52.018;5.576;2023-08-21T02:57:56;10.63;;;3.30;;
67819;SDS011;54618;52.018;5.576;2023-08-21T03:00:22;5.90;;;2.50;;
67819;SDS011;54618;52.018;5.576;2023-08-21T03:02:48;6.85;;;2.50;;
67819;SDS011;54618;52.018;5.576;2023-08-21T03:05:13;8.07;;;2.30;;
67819;SDS011;54618;52.018;5.576;2023-08-21T03:07:39;7.47;;;2.85;;
67819;SDS011;54618;52.018;5.576;2023-08-21T03:10:05;5.55;;;2.40;;
67819;SDS011;54618;52.018;5.576;2023-08-21T03:12:32;7.45;;;2.75;;
67819;SDS011;54618;52.018;5.576;2023-08-21T03:14:57;11.43;;;2.78;;
67819;SDS011;54618;52.018;5.576;2023-08-21T03:17:23;6.90;;;2.22;;
67819;SDS011;54618;52.018;5.576;2023-08-21T03:19:49;9.95;;;2.60;;
67819;SDS011;54618;52.018;5.576;2023-08-21T03:22:14;7.82;;;2.78;;
67819;SDS011;54618;52.018;5.576;2023-08-21T03:24:40;8.57;;;2.78;;
67819;SDS011;54618;52.018;5.576;2023-08-21T03:27:05;6.55;;;2.33;;
67819;SDS011;54618;52.018;5.576;2023-08-21T03:29:31;8.48;;;2.45;;
67819;SDS011;54618;52.018;5.576;2023-08-21T03:31:57;7.88;;;2.47;;
67819;SDS011;54618;52.018;5.576;2023-08-21T03:34:23;5.57;;;2.33;;
67819;SDS011;54618;52.018;5.576;2023-08-21T03:36:48;7.93;;;2.40;;
67819;SDS011;54618;52.018;5.576;2023-08-21T03:39:14;9.00;;;2.90;;
67819;SDS011;54618;52.018;5.576;2023-08-21T03:41:39;8.35;;;3.50;;
67819;SDS011;54618;52.018;5.576;2023-08-21T03:44:05;7.75;;;3.38;;
67819;SDS011;54618;52.018;5.576;2023-08-21T03:46:31;8.88;;;4.13;;
67819;SDS011;54618;52.018;5.576;2023-08-21T03:48:56;6.97;;;3.60;;
67819;SDS011;54618;52.018;5.576;2023-08-21T03:51:22;7.13;;;3.60;;
67819;SDS011;54618;52.018;5.576;2023-08-21T03:53:47;10.52;;;4.00;;
67819;SDS011;54618;52.018;5.576;2023-08-21T03:56:14;7.20;;;3.17;;
67819;SDS011;54618;52.018;5.576;2023-08-21T03:58:39;10.18;;;3.67;;
67819;SDS011;54618;52.018;5.576;2023-08-21T04:01:05;7.10;;;2.97;;
67819;SDS011;54618;52.018;5.576;2023-08-21T04:03:30;10.15;;;3.65;;
67819;SDS011;54618;52.018;5.576;2023-08-21T04:05:56;10.48;;;3.72;;
67819;SDS011;54618;52.018;5.576;2023-08-21T04:08:22;8.80;;;3.42;;
67819;SDS011;54618;52.018;5.576;2023-08-21T04:10:48;9.95;;;3.03;;
67819;SDS011;54618;52.018;5.576;2023-08-21T04:13:13;5.05;;;2.83;;
67819;SDS011;54618;52.018;5.576;2023-08-21T04:15:39;9.32;;;3.00;;
67819;SDS011;54618;52.018;5.576;2023-08-21T04:18:10;7.47;;;2.63;;
67819;SDS011;54618;52.018;5.576;2023-08-21T04:20:35;7.20;;;2.90;;
67819;SDS011;54618;52.018;5.576;2023-08-21T04:23:01;6.72;;;2.95;;
67819;SDS011;54618;52.018;5.576;2023-08-21T04:25:27;5.80;;;2.72;;
67819;SDS011;54618;52.018;5.576;2023-08-21T04:27:53;11.48;;;3.08;;
67819;SDS011;54618;52.018;5.576;2023-08-21T04:30:18;10.05;;;3.30;;
67819;SDS011;54618;52.018;5.576;2023-08-21T04:32:44;11.45;;;3.60;;
67819;SDS011;54618;52.018;5.576;2023-08-21T04:35:09;10.50;;;3.67;;
67819;SDS011;54618;52.018;5.576;2023-08-21T04:40:03;7.90;;;3.28;;
67819;SDS011;54618;52.018;5.576;2023-08-21T04:42:31;9.68;;;3.70;;
67819;SDS011;54618;52.018;5.576;2023-08-21T04:44:57;7.50;;;3.95;;
67819;SDS011;54618;52.018;5.576;2023-08-21T04:47:23;9.82;;;4.00;;
67819;SDS011;54618;52.018;5.576;2023-08-21T04:49:53;15.07;;;3.95;;
67819;SDS011;54618;52.018;5.576;2023-08-21T04:52:20;9.60;;;3.75;;
67819;SDS011;54618;52.018;5.576;2023-08-21T04:54:49;10.98;;;3.28;;
67819;SDS011;54618;52.018;5.576;2023-08-21T04:57:16;11.15;;;4.00;;
67819;SDS011;54618;52.018;5.576;2023-08-21T04:59:42;14.43;;;3.53;;
67819;SDS011;54618;52.018;5.576;2023-08-21T05:02:08;9.45;;;3.40;;
67819;SDS011;54618;52.018;5.576;2023-08-21T05:04:35;10.15;;;3.20;;
67819;SDS011;54618;52.018;5.576;2023-08-21T05:07:01;8.30;;;3.35;;
67819;SDS011;54618;52.018;5.576;2023-08-21T05:09:27;5.75;;;2.72;;
67819;SDS011;54618;52.018;5.576;2023-08-21T05:11:53;6.97;;;3.08;;
67819;SDS011;54618;52.018;5.576;2023-08-21T05:14:19;7.55;;;2.92;;
67819;SDS011;54618;52.018;5.576;2023-08-21T05:16:45;8.98;;;3.53;;
67819;SDS011;54618;52.018;5.576;2023-08-21T05:19:11;6.32;;;2.55;;
67819;SDS011;54618;52.018;5.576;2023-08-21T05:21:37;7.07;;;2.90;;
67819;SDS011;54618;52.018;5.576;2023-08-21T05:24:02;6.65;;;3.00;;
67819;SDS011;54618;52.018;5.576;2023-08-21T05:26:31;7.20;;;2.55;;
67819;SDS011;54618;52.018;5.576;2023-08-21T05:28:56;10.07;;;3.40;;
67819;SDS011;54618;52.018;5.576;2023-08-21T05:31:22;10.93;;;3.00;;
67819;SDS011;54618;52.018;5.576;2023-08-21T05:33:48;8.40;;;2.55;;
67819;SDS011;54618;52.018;5.576;2023-08-21T05:36:13;5.93;;;2.85;;
67819;SDS011;54618;52.018;5.576;2023-08-21T05:38:39;8.50;;;2.80;;
67819;SDS011;54618;52.018;5.576;2023-08-21T05:41:04;7.95;;;2.90;;
67819;SDS011;54618;52.018;5.576;2023-08-21T05:43:30;15.65;;;3.80;;
67819;SDS011;54618;52.018;5.576;2023-08-21T05:45:55;15.35;;;3.40;;
67819;SDS011;54618;52.018;5.576;2023-08-21T05:48:21;11.15;;;3.00;;
67819;SDS011;54618;52.018;5.576;2023-08-21T05:50:50;11.02;;;3.45;;
67819;SDS011;54618;52.018;5.576;2023-08-21T05:53:16;8.07;;;3.28;;
67819;SDS011;54618;52.018;5.576;2023-08-21T05:55:42;10.52;;;2.70;;
67819;SDS011;54618;52.018;5.576;2023-08-21T05:58:07;10.35;;;3.58;;
67819;SDS011;54618;52.018;5.576;2023-08-21T06:00:33;7.30;;;3.03;;
67819;SDS011;54618;52.018;5.576;2023-08-21T06:03:00;6.80;;;2.80;;
67819;SDS011;54618;52.018;5.576;2023-08-21T06:05:25;14.27;;;5.43;;
67819;SDS011;54618;52.018;5.576;2023-08-21T06:07:51;16.15;;;5.25;;
67819;SDS011;54618;52.018;5.576;2023-08-21T06:10:17;16.35;;;5.35;;
67819;SDS011;54618;52.018;5.576;2023-08-21T06:12:42;17.00;;;5.78;;
67819;SDS011;54618;52.018;5.576;2023-08-21T06:15:08;19.75;;;7.10;;
67819;SDS011;54618;52.018;5.576;2023-08-21T06:17:35;17.63;;;6.68;;
67819;SDS011;54618;52.018;5.576;2023-08-21T06:20:04;14.68;;;6.68;;
67819;SDS011;54618;52.018;5.576;2023-08-21T06:22:36;17.40;;;5.63;;
67819;SDS011;54618;52.018;5.576;2023-08-21T06:25:03;32.15;;;6.60;;
67819;SDS011;54618;52.018;5.576;2023-08-21T06:27:32;10.32;;;5.22;;
67819;SDS011;54618;52.018;5.576;2023-08-21T06:29:57;13.02;;;5.85;;
67819;SDS011;54618;52.018;5.576;2023-08-21T06:32:23;13.98;;;6.38;;
67819;SDS011;54618;52.018;5.576;2023-08-21T06:34:50;17.88;;;5.38;;
67819;SDS011;54618;52.018;5.576;2023-08-21T06:37:15;15.10;;;5.00;;
67819;SDS011;54618;52.018;5.576;2023-08-21T06:39:41;19.10;;;5.82;;
67819;SDS011;54618;52.018;5.576;2023-08-21T06:42:06;24.75;;;5.47;;
67819;SDS011;54618;52.018;5.576;2023-08-21T06:44:32;12.13;;;4.80;;
67819;SDS011;54618;52.018;5.576;2023-08-21T06:47:01;13.15;;;4.78;;
67819;SDS011;54618;52.018;5.576;2023-08-21T06:49:27;14.10;;;4.90;;
67819;SDS011;54618;52.018;5.576;2023-08-21T06:51:52;10.38;;;4.28;;
67819;SDS011;54618;52.018;5.576;2023-08-21T06:54:20;15.35;;;4.80;;
67819;SDS011;54618;52.018;5.576;2023-08-21T06:56:46;15.90;;;4.40;;
67819;SDS011;54618;52.018;5.576;2023-08-21T06:59:11;12.25;;;4.38;;
67819;SDS011;54618;52.018;5.576;2023-08-21T07:01:37;9.35;;;3.70;;
67819;SDS011;54618;52.018;5.576;2023-08-21T07:04:03;11.57;;;4.20;;
67819;SDS011;54618;52.018;5.576;2023-08-21T07:06:31;20.38;;;4.45;;
67819;SDS011;54618;52.018;5.576;2023-08-21T07:08:57;15.60;;;3.60;;
67819;SDS011;54618;52.018;5.576;2023-08-21T07:11:23;16.20;;;4.10;;
67819;SDS011;54618;52.018;5.576;2023-08-21T07:13:49;15.70;;;4.10;;
67819;SDS011;54618;52.018;5.576;2023-08-21T07:16:14;13.88;;;3.85;;
67819;SDS011;54618;52.018;5.576;2023-08-21T07:18:40;7.63;;;2.83;;
67819;SDS011;54618;52.018;5.576;2023-08-21T07:21:05;11.75;;;3.33;;
67819;SDS011;54618;52.018;5.576;2023-08-21T07:23:31;12.15;;;3.58;;
67819;SDS011;54618;52.018;5.576;2023-08-21T07:25:58;15.20;;;3.28;;
67819;SDS011;54618;52.018;5.576;2023-08-21T07:28:27;15.10;;;3.20;;
67819;SDS011;54618;52.018;5.576;2023-08-21T07:30:56;12.00;;;3.60;;
67819;SDS011;54618;52.018;5.576;2023-08-21T07:33:22;8.52;;;2.67;;
67819;SDS011;54618;52.018;5.576;2023-08-21T07:35:56;8.55;;;2.75;;
67819;SDS011;54618;52.018;5.576;2023-08-21T07:38:31;8.75;;;2.90;;
67819;SDS011;54618;52.018;5.576;2023-08-21T07:41:08;7.32;;;2.63;;
67819;SDS011;54618;52.018;5.576;2023-08-21T07:43:35;6.43;;;2.05;;
67819;SDS011;54618;52.018;5.576;2023-08-21T07:46:02;13.68;;;2.80;;
67819;SDS011;54618;52.018;5.576;2023-08-21T07:48:35;10.85;;;2.80;;
67819;SDS011;54618;52.018;5.576;2023-08-21T07:51:01;7.80;;;1.70;;
67819;SDS011;54618;52.018;5.576;2023-08-21T07:53:27;8.38;;;2.28;;
67819;SDS011;54618;52.018;5.576;2023-08-21T07:55:53;5.13;;;1.45;;
67819;SDS011;54618;52.018;5.576;2023-08-21T07:58:18;6.15;;;1.67;;
67819;SDS011;54618;52.018;5.576;2023-08-21T08:00:44;9.90;;;2.08;;
67819;SDS011;54618;52.018;5.576;2023-08-21T08:03:10;7.15;;;2.03;;
67819;SDS011;54618;52.018;5.576;2023-08-21T08:05:39;11.23;;;2.63;;
67819;SDS011;54618;52.018;5.576;2023-08-21T08:08:05;10.95;;;2.78;;
67819;SDS011;54618;52.018;5.576;2023-08-21T08:10:31;8.98;;;2.53;;
67819;SDS011;54618;52.018;5.576;2023-08-21T08:12:56;11.90;;;2.97;;
67819;SDS011;54618;52.018;5.576;2023-08-21T08:15:22;8.60;;;2.40;;
67819;SDS011;54618;52.018;5.576;2023-08-21T08:17:48;6.53;;;2.17;;
67819;SDS011;54618;52.018;5.576;2023-08-21T08:20:17;13.55;;;2.88;;
67819;SDS011;54618;52.018;5.576;2023-08-21T08:22:44;8.55;;;2.60;;
67819;SDS011;54618;52.018;5.576;2023-08-21T08:25:09;7.43;;;2.35;;
67819;SDS011;54618;52.018;5.576;2023-08-21T08:27:35;11.20;;;2.95;;
67819;SDS011;54618;52.018;5.576;2023-08-21T08:30:01;10.07;;;2.50;;
67819;SDS011;54618;52.018;5.576;2023-08-21T08:32:28;8.10;;;2.60;;
67819;SDS011;54618;52.018;5.576;2023-08-21T08:34:56;10.90;;;2.33;;
67819;SDS011;54618;52.018;5.576;2023-08-21T08:37:22;7.20;;;2.40;;
67819;SDS011;54618;52.018;5.576;2023-08-21T08:39:48;7.85;;;2.35;;
67819;SDS011;54618;52.018;5.576;2023-08-21T08:42:14;9.82;;;2.33;;
67819;SDS011;54618;52.018;5.576;2023-08-21T08:44:41;6.50;;;2.13;;
67819;SDS011;54618;52.018;5.576;2023-08-21T08:47:07;8.57;;;2.17;;
67819;SDS011;54618;52.018;5.576;2023-08-21T08:49:39;10.52;;;2.67;;
67819;SDS011;54618;52.018;5.576;2023-08-21T08:52:05;11.43;;;2.53;;
67819;SDS011;54618;52.018;5.576;2023-08-21T08:54:31;10.32;;;2.50;;
67819;SDS011;54618;52.018;5.576;2023-08-21T08:56:57;10.50;;;2.22;;
67819;SDS011;54618;52.018;5.576;2023-08-21T08:59:29;8.75;;;2.30;;
67819;SDS011;54618;52.018;5.576;2023-08-21T09:01:56;9.05;;;2.63;;
67819;SDS011;54618;52.018;5.576;2023-08-21T09:04:22;9.90;;;2.50;;
67819;SDS011;54618;52.018;5.576;2023-08-21T09:06:47;6.15;;;1.80;;
67819;SDS011;54618;52.018;5.576;2023-08-21T09:09:13;6.82;;;1.73;;
67819;SDS011;54618;52.018;5.576;2023-08-21T09:11:42;7.20;;;1.40;;
67819;SDS011;54618;52.018;5.576;2023-08-21T09:14:10;7.10;;;1.70;;
67819;SDS011;54618;52.018;5.576;2023-08-21T09:16:36;6.03;;;1.35;;
67819;SDS011;54618;52.018;5.576;2023-08-21T09:19:02;6.68;;;1.63;;
67819;SDS011;54618;52.018;5.576;2023-08-21T09:21:28;9.48;;;1.60;;
67819;SDS011;54618;52.018;5.576;2023-08-21T09:23:57;5.53;;;1.55;;
67819;SDS011;54618;52.018;5.576;2023-08-21T09:26:29;6.97;;;1.73;;
67819;SDS011;54618;52.018;5.576;2023-08-21T09:29:03;6.00;;;1.50;;
67819;SDS011;54618;52.018;5.576;2023-08-21T09:31:33;6.78;;;1.20;;
67819;SDS011;54618;52.018;5.576;2023-08-21T09:34:02;6.45;;;1.50;;
67819;SDS011;54618;52.018;5.576;2023-08-21T09:36:32;6.38;;;1.23;;
67819;SDS011;54618;52.018;5.576;2023-08-21T09:38:58;5.10;;;1.60;;
67819;SDS011;54618;52.018;5.576;2023-08-21T09:41:28;6.15;;;1.20;;
67819;SDS011;54618;52.018;5.576;2023-08-21T09:44:03;8.05;;;1.48;;
67819;SDS011;54618;52.018;5.576;2023-08-21T09:46:32;5.85;;;1.10;;
67819;SDS011;54618;52.018;5.576;2023-08-21T09:48:58;5.55;;;1.10;;
67819;SDS011;54618;52.018;5.576;2023-08-21T09:51:28;5.03;;;0.98;;
67819;SDS011;54618;52.018;5.576;2023-08-21T09:53:57;5.13;;;1.20;;
67819;SDS011;54618;52.018;5.576;2023-08-21T09:56:23;6.93;;;1.25;;
67819;SDS011;54618;52.018;5.576;2023-08-21T09:58:50;4.60;;;1.30;;
67819;SDS011;54618;52.018;5.576;2023-08-21T10:01:16;5.97;;;1.20;;
67819;SDS011;54618;52.018;5.576;2023-08-21T10:03:45;3.83;;;1.23;;
67819;SDS011;54618;52.018;5.576;2023-08-21T10:06:13;6.50;;;1.20;;
67819;SDS011;54618;52.018;5.576;2023-08-21T10:08:45;3.08;;;1.05;;
67819;SDS011;54618;52.018;5.576;2023-08-21T10:11:14;5.53;;;1.27;;
67819;SDS011;54618;52.018;5.576;2023-08-21T10:13:44;6.78;;;1.42;;
67819;SDS011;54618;52.018;5.576;2023-08-21T10:16:10;7.65;;;1.30;;
67819;SDS011;54618;52.018;5.576;2023-08-21T10:18:36;5.22;;;1.13;;
67819;SDS011;54618;52.018;5.576;2023-08-21T10:23:40;4.65;;;1.30;;
67819;SDS011;54618;52.018;5.576;2023-08-21T10:26:06;7.35;;;1.30;;
67819;SDS011;54618;52.018;5.576;2023-08-21T10:34:04;3.58;;;1.05;;
67819;SDS011;54618;52.018;5.576;2023-08-21T10:39:15;5.32;;;1.08;;
67819;SDS011;54618;52.018;5.576;2023-08-21T10:41:58;3.38;;;0.90;;
67819;SDS011;54618;52.018;5.576;2023-08-21T10:49:53;3.83;;;0.80;;
67819;SDS011;54618;52.018;5.576;2023-08-21T10:52:22;4.50;;;0.80;;
67819;SDS011;54618;52.018;5.576;2023-08-21T10:54:49;4.13;;;0.80;;
67819;SDS011;54618;52.018;5.576;2023-08-21T10:57:16;2.28;;;0.85;;
67819;SDS011;54618;52.018;5.576;2023-08-21T10:59:49;6.15;;;0.82;;
67819;SDS011;54618;52.018;5.576;2023-08-21T11:02:38;4.43;;;0.90;;
67819;SDS011;54618;52.018;5.576;2023-08-21T11:05:05;7.25;;;1.10;;
67819;SDS011;54618;52.018;5.576;2023-08-21T11:07:38;2.72;;;0.85;;
67819;SDS011;54618;52.018;5.576;2023-08-21T11:12:35;3.08;;;0.90;;
67819;SDS011;54618;52.018;5.576;2023-08-21T11:15:00;2.90;;;0.60;;
67819;SDS011;54618;52.018;5.576;2023-08-21T11:17:27;3.78;;;0.80;;
67819;SDS011;54618;52.018;5.576;2023-08-21T11:19:52;4.32;;;0.75;;
67819;SDS011;54618;52.018;5.576;2023-08-21T11:22:18;2.40;;;0.82;;
67819;SDS011;54618;52.018;5.576;2023-08-21T11:27:11;7.32;;;0.90;;
67819;SDS011;54618;52.018;5.576;2023-08-21T11:29:49;5.13;;;0.85;;
67819;SDS011;54618;52.018;5.576;2023-08-21T11:32:17;3.53;;;0.70;;
67819;SDS011;54618;52.018;5.576;2023-08-21T11:37:33;3.10;;;0.80;;
67819;SDS011;54618;52.018;5.576;2023-08-21T11:39:59;1.75;;;0.57;;
67819;SDS011;54618;52.018;5.576;2023-08-21T11:42:32;2.88;;;0.75;;
67819;SDS011;54618;52.018;5.576;2023-08-21T11:44:59;6.22;;;0.90;;
67819;SDS011;54618;52.018;5.576;2023-08-21T11:47:32;4.07;;;0.85;;
67819;SDS011;54618;52.018;5.576;2023-08-21T11:50:05;3.53;;;0.80;;
67819;SDS011;54618;52.018;5.576;2023-08-21T11:52:33;3.33;;;0.80;;
67819;SDS011;54618;52.018;5.576;2023-08-21T11:55:06;3.55;;;0.77;;
67819;SDS011;54618;52.018;5.576;2023-08-21T11:57:51;3.67;;;0.77;;
67819;SDS011;54618;52.018;5.576;2023-08-21T12:00:17;9.88;;;0.90;;
67819;SDS011;54618;52.018;5.576;2023-08-21T12:02:53;4.07;;;0.88;;
67819;SDS011;54618;52.018;5.576;2023-08-21T12:05:20;3.25;;;0.80;;
67819;SDS011;54618;52.018;5.576;2023-08-21T12:07:46;6.63;;;1.08;;
67819;SDS011;54618;52.018;5.576;2023-08-21T12:10:11;5.25;;;0.93;;
67819;SDS011;54618;52.018;5.576;2023-08-21T12:12:37;4.78;;;1.10;;
67819;SDS011;54618;52.018;5.576;2023-08-21T12:15:02;5.18;;;1.20;;
67819;SDS011;54618;52.018;5.576;2023-08-21T12:17:28;5.63;;;1.20;;
67819;SDS011;54618;52.018;5.576;2023-08-21T12:19:54;5.40;;;1.15;;
67819;SDS011;54618;52.018;5.576;2023-08-21T12:22:19;5.93;;;1.10;;
67819;SDS011;54618;52.018;5.576;2023-08-21T12:24:45;7.32;;;1.50;;
67819;SDS011;54618;52.018;5.576;2023-08-21T12:27:10;5.90;;;1.10;;
67819;SDS011;54618;52.018;5.576;2023-08-21T12:29:36;2.75;;;0.70;;
67819;SDS011;54618;52.018;5.576;2023-08-21T12:32:01;3.38;;;0.88;;
67819;SDS011;54618;52.018;5.576;2023-08-21T12:34:36;4.10;;;0.98;;
67819;SDS011;54618;52.018;5.576;2023-08-21T12:37:01;4.20;;;0.80;;
67819;SDS011;54618;52.018;5.576;2023-08-21T12:39:28;5.72;;;1.00;;
67819;SDS011;54618;52.018;5.576;2023-08-21T12:41:54;4.53;;;0.80;;
67819;SDS011;54618;52.018;5.576;2023-08-21T12:44:19;6.82;;;0.98;;
67819;SDS011;54618;52.018;5.576;2023-08-21T12:46:45;3.70;;;0.98;;
67819;SDS011;54618;52.018;5.576;2023-08-21T12:49:10;4.22;;;0.90;;
67819;SDS011;54618;52.018;5.576;2023-08-21T12:51:36;6.22;;;0.90;;
67819;SDS011;54618;52.018;5.576;2023-08-21T12:54:02;8.70;;;1.25;;
67819;SDS011;54618;52.018;5.576;2023-08-21T12:56:28;6.93;;;0.98;;
67819;SDS011;54618;52.018;5.576;2023-08-21T12:58:53;5.63;;;1.00;;
67819;SDS011;54618;52.018;5.576;2023-08-21T13:01:19;4.57;;;1.02;;
67819;SDS011;54618;52.018;5.576;2023-08-21T13:03:45;6.45;;;1.10;;
67819;SDS011;54618;52.018;5.576;2023-08-21T13:06:11;3.75;;;1.10;;
67819;SDS011;54618;52.018;5.576;2023-08-21T13:08:37;3.60;;;0.90;;
67819;SDS011;54618;52.018;5.576;2023-08-21T13:11:03;4.22;;;0.60;;
67819;SDS011;54618;52.018;5.576;2023-08-21T13:13:30;1.60;;;0.60;;
67819;SDS011;54618;52.018;5.576;2023-08-21T13:15:56;3.95;;;0.77;;
67819;SDS011;54618;52.018;5.576;2023-08-21T13:18:21;5.15;;;1.00;;
67819;SDS011;54618;52.018;5.576;2023-08-21T13:20:47;6.30;;;1.00;;
67819;SDS011;54618;52.018;5.576;2023-08-21T13:23:13;5.40;;;1.00;;
67819;SDS011;54618;52.018;5.576;2023-08-21T13:25:38;2.17;;;0.55;;
67819;SDS011;54618;52.018;5.576;2023-08-21T13:28:04;3.53;;;0.70;;
67819;SDS011;54618;52.018;5.576;2023-08-21T13:30:33;7.68;;;0.70;;
67819;SDS011;54618;52.018;5.576;2023-08-21T13:32:58;4.45;;;0.80;;
67819;SDS011;54618;52.018;5.576;2023-08-21T13:35:24;3.28;;;0.75;;
67819;SDS011;54618;52.018;5.576;2023-08-21T13:37:50;4.40;;;1.15;;
67819;SDS011;54618;52.018;5.576;2023-08-21T13:40:15;4.88;;;0.70;;
67819;SDS011;54618;52.018;5.576;2023-08-21T13:42:44;4.38;;;0.98;;
67819;SDS011;54618;52.018;5.576;2023-08-21T13:47:39;3.05;;;0.70;;
67819;SDS011;54618;52.018;5.576;2023-08-21T13:50:06;4.35;;;0.90;;
67819;SDS011;54618;52.018;5.576;2023-08-21T13:52:32;2.78;;;0.60;;
67819;SDS011;54618;52.018;5.576;2023-08-21T13:54:59;1.83;;;0.75;;
67819;SDS011;54618;52.018;5.576;2023-08-21T13:57:27;3.72;;;0.80;;
67819;SDS011;54618;52.018;5.576;2023-08-21T13:59:53;2.85;;;0.52;;
67819;SDS011;54618;52.018;5.576;2023-08-21T14:02:19;2.15;;;0.60;;
67819;SDS011;54618;52.018;5.576;2023-08-21T14:04:45;3.35;;;0.65;;
67819;SDS011;54618;52.018;5.576;2023-08-21T14:07:11;4.57;;;0.70;;
67819;SDS011;54618;52.018;5.576;2023-08-21T14:09:37;2.47;;;0.70;;
67819;SDS011;54618;52.018;5.576;2023-08-21T14:12:04;5.57;;;0.98;;
67819;SDS011;54618;52.018;5.576;2023-08-21T14:14:30;8.25;;;1.10;;
67819;SDS011;54618;52.018;5.576;2023-08-21T14:16:56;3.70;;;0.90;;
67819;SDS011;54618;52.018;5.576;2023-08-21T14:19:23;2.28;;;0.80;;
67819;SDS011;54618;52.018;5.576;2023-08-21T14:21:49;1.85;;;0.70;;
67819;SDS011;54618;52.018;5.576;2023-08-21T14:24:14;3.97;;;0.95;;
67819;SDS011;54618;52.018;5.576;2023-08-21T14:26:41;7.03;;;0.85;;
67819;SDS011;54618;52.018;5.576;2023-08-21T14:29:07;3.97;;;1.00;;
67819;SDS011;54618;52.018;5.576;2023-08-21T14:31:32;2.30;;;0.70;;
67819;SDS011;54618;52.018;5.576;2023-08-21T14:33:58;2.55;;;0.82;;
67819;SDS011;54618;52.018;5.576;2023-08-21T14:36:27;3.58;;;0.70;;
67819;SDS011;54618;52.018;5.576;2023-08-21T14:38:53;3.72;;;0.90;;
67819;SDS011;54618;52.018;5.576;2023-08-21T14:41:18;2.58;;;0.90;;
67819;SDS011;54618;52.018;5.576;2023-08-21T14:43:44;3.60;;;0.90;;
67819;SDS011;54618;52.018;5.576;2023-08-21T14:46:10;4.63;;;0.80;;
67819;SDS011;54618;52.018;5.576;2023-08-21T14:48:35;3.70;;;1.00;;
67819;SDS011;54618;52.018;5.576;2023-08-21T14:51:02;4.03;;;0.80;;
67819;SDS011;54618;52.018;5.576;2023-08-21T14:53:29;3.60;;;0.82;;
67819;SDS011;54618;52.018;5.576;2023-08-21T14:55:58;3.28;;;0.90;;
67819;SDS011;54618;52.018;5.576;2023-08-21T14:58:23;2.83;;;1.10;;
67819;SDS011;54618;52.018;5.576;2023-08-21T15:00:49;8.30;;;1.00;;
67819;SDS011;54618;52.018;5.576;2023-08-21T15:03:18;2.92;;;0.80;;
67819;SDS011;54618;52.018;5.576;2023-08-21T15:05:44;5.38;;;0.90;;
67819;SDS011;54618;52.018;5.576;2023-08-21T15:08:10;2.72;;;0.90;;
67819;SDS011;54618;52.018;5.576;2023-08-21T15:10:35;4.63;;;0.90;;
67819;SDS011;54618;52.018;5.576;2023-08-21T15:13:01;2.83;;;0.77;;
67819;SDS011;54618;52.018;5.576;2023-08-21T15:15:27;5.95;;;0.88;;
67819;SDS011;54618;52.018;5.576;2023-08-21T15:17:53;3.75;;;1.00;;
67819;SDS011;54618;52.018;5.576;2023-08-21T15:20:18;4.65;;;1.25;;